Time;durP1;ratioP1;P1;durP2;ratioP2;P2;SDS_P1;SDS_P2;PMS_P1;PMS_P2;Temp;Humidity;BMP_temperature;BMP_pressure;BME280_temperature;BME280_humidity;BME280_pressure;Samples;Min_cycle;Max_cycle;Signal;HPM_P1;HPM_P2
2022/01/03 00:00:29;;;;;;;79.35;39.00;;;;;;;7.45;100.00;100554.03;5031655;28;20030;-67
2022/01/03 00:02:57;;;;;;;92.78;42.03;;;;;;;7.26;100.00;100498.50;5032258;28;20056;-67
2022/01/03 00:05:23;;;;;;;84.82;39.03;;;;;;;7.44;100.00;100548.97;5032087;28;20036;-67
2022/01/03 00:07:48;;;;;;;87.30;40.08;;;;;;;7.46;100.00;100550.66;5030435;28;20021;-67
2022/01/03 00:10:16;;;;;;;110.75;40.45;;;;;;;7.11;100.00;100498.59;5031828;28;20032;-67
2022/01/03 00:12:42;;;;;;;120.32;40.00;;;;;;;7.11;100.00;100496.09;5030432;28;20036;-67
2022/01/03 00:15:13;;;;;;;85.90;37.53;;;;;;;7.46;100.00;100543.06;5031274;28;20032;-67
2022/01/03 00:17:38;;;;;;;80.25;36.90;;;;;;;7.52;100.00;100519.41;5031938;28;20037;-66
2022/01/03 00:20:05;;;;;;;94.60;37.45;;;;;;;7.57;100.00;100517.69;5031465;28;20022;-67
2022/01/03 00:22:48;;;;;;;104.10;38.20;;;;;;;7.40;100.00;100463.84;5030260;28;20052;-67
2022/01/03 00:25:19;;;;;;;85.30;35.40;;;;;;;7.25;100.00;100439.50;5030261;28;20032;-67
2022/01/03 00:27:51;;;;;;;76.43;29.88;;;;;;;7.40;100.00;100444.47;5029796;28;20549;-66
2022/01/03 00:30:19;;;;;;;;;;;;;;;7.62;100.00;100501.63;5032018;28;20041;-66
2022/01/03 00:32:47;;;;;;;84.15;35.10;;;;;;;7.49;100.00;100494.97;5031322;28;19959;-66
2022/01/03 00:35:15;;;;;;;94.72;39.75;;;;;;;7.51;100.00;100462.06;5031646;28;20108;-66
2022/01/03 00:37:45;;;;;;;110.13;43.63;;;;;;;7.14;100.00;100448.03;5031311;28;20112;-66
2022/01/03 00:40:13;;;;;;;88.85;39.85;;;;;;;7.54;100.00;100510.97;5029588;28;20134;-66
2022/01/03 00:42:39;;;;;;;103.40;42.15;;;;;;;7.15;100.00;100452.25;5031342;28;20112;-66
2022/01/03 00:45:05;;;;;;;120.25;43.00;;;;;;;7.10;100.00;100479.22;5029973;28;20021;-67
2022/01/03 00:47:32;;;;;;;96.93;40.33;;;;;;;7.32;100.00;100470.66;5031262;28;20083;-67
2022/01/03 00:49:59;;;;;;;138.98;50.03;;;;;;;6.70;100.00;100439.00;5031466;28;20037;-66
2022/01/03 00:52:24;;;;;;;136.88;48.60;;;;;;;6.97;100.00;100489.41;5031494;28;20037;-66
2022/01/03 00:54:50;;;;;;;121.75;47.33;;;;;;;7.08;100.00;100526.41;5030809;28;20037;-66
2022/01/03 00:57:31;;;;;;;121.03;47.10;;;;;;;6.97;100.00;100476.75;5031453;28;20099;-67
2022/01/03 01:00:04;;;;;;;127.60;45.30;;;;;;;7.23;100.00;100496.00;5031062;28;20036;-66
2022/01/03 01:03:15;;;;;;;138.23;41.95;;;;;;;7.16;100.00;100502.78;4556186;23;9999777;-66
2022/01/03 01:06:02;;;;;;;105.15;41.20;;;;;;;7.26;100.00;100479.13;5028624;28;20132;-66
2022/01/03 01:08:28;;;;;;;102.20;40.80;;;;;;;6.95;100.00;100397.59;5030590;28;20030;-67
2022/01/03 01:10:58;;;;;;;96.90;39.17;;;;;;;7.39;100.00;100455.41;5030961;28;20038;-66
2022/01/03 01:13:24;;;;;;;116.60;42.45;;;;;;;7.25;100.00;100419.28;5029252;28;20033;-67
2022/01/03 01:15:50;;;;;;;119.32;42.28;;;;;;;6.86;100.00;100384.19;5030827;28;20021;-67
2022/01/03 01:18:16;;;;;;;92.47;38.50;;;;;;;7.42;100.00;100447.81;5030559;28;20067;-67
2022/01/03 01:20:41;;;;;;;84.43;37.97;;;;;;;7.61;100.00;100430.78;5030490;28;20473;-67
2022/01/03 01:23:09;;;;;;;106.35;39.80;;;;;;;7.40;100.00;100393.88;5029270;28;20030;-67
2022/01/03 01:28:07;;;;;;;113.85;45.60;;;;;;;7.51;100.00;100436.78;5030672;28;20485;-67
2022/01/03 01:30:33;;;;;;;114.03;47.55;;;;;;;7.52;100.00;100419.06;5030480;28;20079;-67
2022/01/03 01:33:06;;;;;;;114.78;45.50;;;;;;;7.35;100.00;100384.66;5028446;28;20421;-67
2022/01/03 01:35:42;;;;;;;128.65;48.35;;;;;;;7.28;100.00;100372.91;5030367;28;20022;-68
2022/01/03 01:38:12;;;;;;;122.28;47.33;;;;;;;7.44;100.00;100430.09;5030111;28;20029;-67
2022/01/03 01:40:46;;;;;;;116.30;46.33;;;;;;;7.50;100.00;100417.41;5030519;28;20029;-67
2022/01/03 01:43:13;;;;;;;111.65;45.38;;;;;;;7.60;100.00;100403.81;5030187;28;20071;-66
2022/01/03 01:45:43;;;;;;;120.45;46.38;;;;;;;7.07;100.00;100358.78;5030403;28;20037;-66
2022/01/03 01:48:11;;;;;;;117.07;44.58;;;;;;;6.82;100.00;100349.66;5029840;28;20121;-67
2022/01/03 01:50:41;;;;;;;107.78;41.60;;;;;;;7.23;100.00;100402.47;5028453;28;20067;-66
2022/01/03 01:53:07;;;;;;;105.50;42.22;;;;;;;7.13;100.00;100394.09;5029062;28;20356;-67
2022/01/03 01:55:33;;;;;;;131.20;43.13;;;;;;;6.69;100.00;100328.72;5030096;28;20021;-66
2022/01/03 01:58:23;;;;;;;123.80;42.53;;;;;;;7.12;100.00;100392.41;5030222;28;20037;-67
2022/01/03 02:00:57;;;;;;;121.70;42.78;;;;;;;6.73;100.00;100324.47;5029802;28;20561;-66
2022/01/03 02:03:40;;;;;;;84.13;36.33;;;;;;;6.94;100.00;100390.88;5028767;28;20049;-66
2022/01/03 02:06:09;;;;;;;82.28;38.42;;;;;;;6.94;100.00;100377.38;5030010;28;20022;-68
2022/01/03 02:08:44;;;;;;;83.13;39.60;;;;;;;6.93;100.00;100347.94;5030014;28;20022;-66
2022/01/03 02:11:15;;;;;;;69.65;37.67;;;;;;;6.92;100.00;100369.81;5029953;28;20056;-66
2022/01/03 02:13:41;;;;;;;41.53;24.27;;;;;;;6.37;100.00;100290.22;5029858;28;20068;-66
2022/01/03 02:16:08;;;;;;;50.55;31.05;;;;;;;6.85;100.00;100368.16;5029998;28;20479;-66
2022/01/03 02:18:34;;;;;;;56.33;31.75;;;;;;;6.45;100.00;100310.34;5029830;28;20108;-66
2022/01/03 02:21:02;;;;;;;55.97;31.60;;;;;;;7.01;100.00;100366.41;5030023;28;20056;-66
2022/01/03 02:23:27;;;;;;;62.53;35.88;;;;;;;6.69;100.00;100379.25;5028795;28;20419;-66
2022/01/03 02:25:53;;;;;;;57.97;30.63;;;;;;;6.80;100.00;100364.84;5029183;28;20030;-67
2022/01/03 02:28:22;;;;;;;64.75;33.78;;;;;;;6.49;100.00;100307.81;5029760;28;20052;-66
2022/01/03 02:30:49;;;;;;;73.93;38.10;;;;;;;6.80;100.00;100348.84;5029864;28;20099;-66
2022/01/03 02:33:15;;;;;;;75.85;41.53;;;;;;;6.95;100.00;100344.50;5029914;28;20483;-67
2022/01/03 02:35:42;;;;;;;65.85;35.80;;;;;;;6.70;100.00;100297.56;5028587;28;20108;-67
2022/01/03 02:38:08;;;;;;;66.43;34.53;;;;;;;6.90;100.00;100335.28;5029618;28;20121;-66
2022/01/03 02:40:34;;;;;;;74.60;35.15;;;;;;;6.97;100.00;100352.09;5029503;28;20037;-66
2022/01/03 02:42:59;;;;;;;74.18;35.10;;;;;;;6.83;100.00;100331.97;5029927;28;20032;-66
2022/01/03 02:45:26;;;;;;;74.93;33.75;;;;;;;6.90;100.00;100337.81;5032332;28;20036;-67
2022/01/03 02:47:57;;;;;;;97.18;40.85;;;;;;;6.67;100.00;100332.94;5032769;28;20112;-67
2022/01/03 02:50:24;;;;;;;77.47;38.70;;;;;;;6.85;100.00;100325.22;5033215;28;20033;-66
2022/01/03 02:52:50;;;;;;;72.68;34.30;;;;;;;6.60;100.00;100285.00;5033014;28;20295;-66
2022/01/03 02:55:17;;;;;;;70.00;35.47;;;;;;;6.87;100.00;100330.28;5033258;28;20136;-67
2022/01/03 02:57:49;;;;;;;65.50;34.85;;;;;;;6.76;100.00;100317.72;5033054;28;20039;-66
2022/01/03 03:00:24;;;;;;;;;;;;;;;6.88;100.00;100326.88;5013751;28;20065;-67
2022/01/03 03:02:50;;;;;;;77.93;36.55;;;;;;;6.80;100.00;100288.22;5013207;28;19918;-67
2022/01/03 03:05:16;;;;;;;82.22;40.50;;;;;;;6.62;100.00;100278.25;5012974;28;20470;-67
2022/01/03 03:07:43;;;;;;;82.22;41.80;;;;;;;6.55;100.00;100256.41;5011633;28;20085;-67
2022/01/03 03:10:14;;;;;;;73.15;36.92;;;;;;;6.54;100.00;100259.78;5013262;28;20065;-67
2022/01/03 03:12:39;;;;;;;82.93;40.30;;;;;;;6.53;100.00;100253.06;5013189;28;20030;-67
2022/01/03 03:15:08;;;;;;;79.43;40.05;;;;;;;6.85;100.00;100292.38;5011877;28;20044;-67
2022/01/03 03:17:35;;;;;;;71.82;37.90;;;;;;;6.38;100.00;100208.56;5012884;28;20034;-67
2022/01/03 03:20:07;;;;;;;81.70;39.78;;;;;;;6.69;100.00;100283.25;5031418;28;20108;-67
2022/01/03 03:22:33;;;;;;;83.57;40.83;;;;;;;6.74;100.00;100291.63;5029336;28;20568;-66
2022/01/03 03:25:05;;;;;;;72.88;38.35;;;;;;;6.89;100.00;100309.19;5032929;28;20124;-67
2022/01/03 03:27:30;;;;;;;72.10;36.83;;;;;;;6.45;100.00;100237.97;5032752;28;20033;-67
2022/01/03 03:29:57;;;;;;;66.10;34.75;;;;;;;6.80;100.00;100284.00;5032510;28;20044;-67
2022/01/03 03:32:25;;;;;;;75.45;35.22;;;;;;;6.37;100.00;100221.19;5032220;28;20033;-67
2022/01/03 03:34:51;;;;;;;68.85;35.33;;;;;;;6.34;100.00;100221.22;5032221;28;20053;-66
2022/01/03 03:37:17;;;;;;;76.40;38.15;;;;;;;6.92;100.00;100273.78;5032464;28;20117;-66
2022/01/03 03:39:44;;;;;;;84.40;38.53;;;;;;;6.72;100.00;100270.59;5030982;28;20064;-68
2022/01/03 03:42:10;;;;;;;87.78;37.67;;;;;;;6.63;100.00;100265.63;5032349;28;20029;-67
2022/01/03 03:44:36;;;;;;;86.13;38.13;;;;;;;6.32;100.00;100188.41;5032230;28;20037;-67
2022/01/03 03:47:03;;;;;;;73.75;34.28;;;;;;;6.79;100.00;100262.09;5032123;28;20030;-67
2022/01/03 03:49:28;;;;;;;67.13;34.67;;;;;;;6.45;100.00;100182.44;5030484;28;20042;-68
2022/01/03 03:51:54;;;;;;;84.78;35.17;;;;;;;6.92;100.00;100267.91;5032361;28;20033;-66
2022/01/03 03:54:19;;;;;;;74.50;33.97;;;;;;;6.98;100.00;100280.47;5031936;28;20118;-67
2022/01/03 03:56:45;;;;;;;75.47;34.38;;;;;;;6.97;100.00;100272.06;5031502;28;20407;-66
2022/01/03 03:59:10;;;;;;;84.20;33.72;;;;;;;6.89;100.00;100288.97;5031976;28;20037;-66
2022/01/03 04:01:36;;;;;;;72.15;32.88;;;;;;;7.01;100.00;100273.69;5031561;28;20467;-67
2022/01/03 04:04:02;;;;;;;82.13;33.13;;;;;;;6.83;100.00;100260.41;5031756;28;20606;-67
2022/01/03 04:06:27;;;;;;;75.60;32.20;;;;;;;6.82;100.00;100278.94;5031995;28;20094;-67
2022/01/03 04:08:53;;;;;;;78.35;32.45;;;;;;;6.94;100.00;100258.63;5031576;28;20037;-67
2022/01/03 04:11:18;;;;;;;83.72;33.13;;;;;;;6.68;100.00;100194.84;5031779;28;20033;-67
2022/01/03 04:13:44;;;;;;;72.70;30.70;;;;;;;6.70;100.00;100195.66;5031753;28;20026;-66
2022/01/03 04:16:10;;;;;;;77.60;31.58;;;;;;;6.90;100.00;100229.16;5031512;28;20021;-66
2022/01/03 04:18:35;;;;;;;83.57;32.47;;;;;;;6.98;100.00;100228.25;5031519;28;20021;-67
2022/01/03 04:21:01;;;;;;;84.68;32.30;;;;;;;6.86;100.00;100233.41;5030371;28;20036;-67
2022/01/03 04:23:27;;;;;;;74.10;30.05;;;;;;;6.93;100.00;100222.38;5030080;28;20041;-66
2022/01/03 04:25:52;;;;;;;71.13;29.52;;;;;;;6.61;100.00;100165.44;5031528;28;20029;-66
2022/01/03 04:28:19;;;;;;;73.95;29.02;;;;;;;6.34;100.00;100146.31;5031406;28;20041;-66
2022/01/03 04:30:45;;;;;;;79.47;30.05;;;;;;;6.82;100.00;100235.97;5030920;28;20091;-66
2022/01/03 04:33:11;;;;;;;81.32;29.73;;;;;;;6.70;100.00;100229.34;5031008;28;20033;-66
2022/01/03 04:35:37;;;;;;;79.28;30.05;;;;;;;6.84;100.00;100236.81;5031685;28;20450;-67
2022/01/03 04:38:03;;;;;;;70.47;30.17;;;;;;;6.75;100.00;100209.97;5030548;28;20044;-67
2022/01/03 04:40:29;;;;;;;71.63;30.00;;;;;;;6.82;100.00;100226.72;5031389;28;20030;-67
2022/01/03 04:42:55;;;;;;;94.03;40.13;;;;;;;6.62;100.00;100169.63;5029875;28;20039;-66
2022/01/03 04:45:21;;;;;;;109.22;44.85;;;;;;;6.81;100.00;100194.72;5031079;28;20033;-67
2022/01/03 04:47:46;;;;;;;95.50;38.72;;;;;;;6.51;100.00;100156.28;5029524;28;20495;-67
2022/01/03 04:50:12;;;;;;;85.68;36.17;;;;;;;6.20;100.00;100112.78;5031035;28;20065;-68
2022/01/03 04:52:38;;;;;;;99.63;43.30;;;;;;;6.82;100.00;100225.88;5029695;28;20025;-67
2022/01/03 04:55:04;;;;;;;102.13;49.03;;;;;;;6.51;100.00;100153.75;5030982;28;20052;-68
2022/01/03 04:57:30;;;;;;;99.60;37.90;;;;;;;6.84;100.00;100207.34;5030838;28;20435;-67
2022/01/03 04:59:55;;;;;;;80.07;36.90;;;;;;;6.84;100.00;100209.00;5030213;28;20029;-66
2022/01/03 05:02:21;;;;;;;66.93;29.17;;;;;;;6.82;100.00;100213.25;5030647;28;20060;-66
2022/01/03 05:04:46;;;;;;;79.57;33.67;;;;;;;6.77;100.00;100202.34;5030949;28;20029;-66
2022/01/03 05:07:11;;;;;;;75.43;33.53;;;;;;;6.46;100.00;100126.00;5029783;28;20478;-66
2022/01/03 05:09:37;;;;;;;63.80;29.55;;;;;;;6.39;100.00;100128.63;5030623;28;20061;-67
2022/01/03 05:12:04;;;;;;;64.70;29.27;;;;;;;6.80;100.00;100210.75;5030928;28;20478;-67
2022/01/03 05:14:30;;;;;;;73.90;33.92;;;;;;;6.79;100.00;100204.00;5030724;28;20033;-66
2022/01/03 05:16:57;;;;;;;74.35;31.38;;;;;;;6.70;100.00;100196.50;5030417;28;20026;-66
2022/01/03 05:19:23;;;;;;;69.43;31.05;;;;;;;6.22;100.00;100100.16;5030854;28;20388;-67
2022/01/03 05:21:49;;;;;;;75.70;33.95;;;;;;;6.82;100.00;100193.03;5030884;28;20044;-67
2022/01/03 05:24:14;;;;;;;78.70;34.40;;;;;;;6.58;100.00;100125.91;5029338;28;20025;-67
2022/01/03 05:26:40;;;;;;;76.18;34.28;;;;;;;6.59;100.00;100132.63;5029473;28;20756;-67
2022/01/03 05:29:05;;;;;;;82.57;32.58;;;;;;;6.59;100.00;100139.38;5030171;28;20402;-67
2022/01/03 05:31:31;;;;;;;77.10;32.78;;;;;;;6.91;100.00;100206.41;5030359;28;20039;-67
2022/01/03 05:33:56;;;;;;;71.40;32.55;;;;;;;6.98;100.00;100192.88;5030855;28;20102;-67
2022/01/03 05:36:22;;;;;;;77.93;32.58;;;;;;;6.75;100.00;100163.63;5030437;28;20025;-67
2022/01/03 05:38:48;;;;;;;78.53;35.25;;;;;;;6.78;100.00;100161.06;5029073;28;20069;-67
2022/01/03 05:41:13;;;;;;;79.78;37.10;;;;;;;6.79;100.00;100166.09;5030496;28;20098;-67
2022/01/03 05:43:39;;;;;;;88.15;38.97;;;;;;;6.77;100.00;100172.03;5030377;28;20109;-67
2022/01/03 05:46:04;;;;;;;76.53;35.30;;;;;;;7.10;100.00;100201.16;5028760;28;20456;-67
2022/01/03 05:48:30;;;;;;;86.50;36.97;;;;;;;6.74;100.00;100147.63;5029013;28;20585;-66
2022/01/03 05:50:55;;;;;;;77.70;36.67;;;;;;;6.55;100.00;100104.91;5030387;28;20036;-67
2022/01/03 05:53:21;;;;;;;83.38;36.90;;;;;;;7.07;100.00;100214.69;5030179;28;20095;-67
2022/01/03 05:55:46;;;;;;;77.82;34.58;;;;;;;7.04;100.00;100204.59;5030167;28;20040;-68
2022/01/03 05:58:13;;;;;;;73.43;30.67;;;;;;;6.88;100.00;100191.28;5029033;28;20053;-67
2022/01/03 06:00:39;;;;;;;87.07;31.85;;;;;;;6.53;100.00;100127.66;5028476;28;20073;-66
2022/01/03 06:03:05;;;;;;;82.45;31.05;;;;;;;6.58;100.00;100137.69;5030242;28;20057;-67
2022/01/03 06:05:52;;;;;;;92.97;34.33;;;;;;;6.73;100.00;100145.13;5030247;28;20075;-67
2022/01/03 06:08:15;;;;;;;84.50;33.45;;;;;;;6.70;100.00;100125.78;5029817;28;20045;-67
2022/01/03 06:10:41;;;;;;;88.85;32.80;;;;;;;6.70;100.00;100130.84;5030163;28;20041;-67
2022/01/03 06:13:07;;;;;;;109.90;41.65;;;;;;;6.95;100.00;100187.84;5029880;28;20472;-68
2022/01/03 06:15:32;;;;;;;88.18;36.80;;;;;;;7.21;100.00;100181.69;5028568;28;20111;-67
2022/01/03 06:17:58;;;;;;;99.57;41.30;;;;;;;6.71;100.00;100132.53;5029186;28;20175;-68
2022/01/03 06:20:23;;;;;;;94.05;41.13;;;;;;;6.57;100.00;100129.28;5033789;28;20030;-68
2022/01/03 06:22:48;;;;;;;100.97;45.10;;;;;;;6.79;100.00;100145.88;5033833;28;20037;-67
2022/01/03 06:25:14;;;;;;;102.68;49.60;;;;;;;7.14;100.00;100182.59;5033838;28;20021;-68
2022/01/03 06:27:40;;;;;;;127.50;66.00;;;;;;;7.11;100.00;100196.09;5033450;28;20026;-67
2022/01/03 06:30:07;;;;;;;172.23;55.88;;;;;;;6.95;100.00;100192.88;5032072;28;20041;-67
2022/01/03 06:32:33;;;;;;;127.30;53.72;;;;;;;6.98;100.00;100187.81;5033458;28;20415;-67
2022/01/03 06:34:58;;;;;;;155.30;59.30;;;;;;;6.82;100.00;100132.41;5033560;28;20044;-67
2022/01/03 06:37:24;;;;;;;146.15;58.15;;;;;;;7.10;100.00;100181.78;5032409;28;20036;-67
2022/01/03 06:39:49;;;;;;;132.73;59.15;;;;;;;6.71;100.00;100124.94;5033514;28;20479;-66
2022/01/03 06:42:15;;;;;;;130.23;60.50;;;;;;;7.24;100.00;100158.88;5033527;28;20415;-66
2022/01/03 06:44:43;;;;;;;113.80;56.38;;;;;;;6.73;100.00;100112.28;5033219;28;20025;-67
2022/01/03 06:47:09;;;;;;;121.95;67.45;;;;;;;6.93;100.00;100133.13;5031917;28;20048;-67
2022/01/03 06:49:34;;;;;;;121.38;70.35;;;;;;;6.82;100.00;100112.19;5032917;28;20403;-67
2022/01/03 06:52:00;;;;;;;93.07;56.47;;;;;;;7.12;100.00;100176.72;5033358;28;20025;-67
2022/01/03 06:54:25;;;;;;;89.57;57.33;;;;;;;7.12;100.00;100171.66;5031928;28;20483;-67
2022/01/03 06:56:51;;;;;;;71.05;45.55;;;;;;;6.81;100.00;100131.53;5031591;28;20495;-68
2022/01/03 06:59:16;;;;;;;61.15;38.65;;;;;;;7.16;100.00;100163.19;5033157;28;20038;-69
2022/01/03 07:01:41;;;;;;;53.92;35.97;;;;;;;7.18;100.00;100164.84;5032952;28;20493;-68
2022/01/03 07:04:07;;;;;;;49.85;31.67;;;;;;;7.21;100.00;100176.63;5033056;28;20025;-68
2022/01/03 07:06:32;;;;;;;41.08;26.63;;;;;;;7.15;100.00;100184.28;5031567;28;20036;-71
2022/01/03 07:08:58;;;;;;;41.00;24.65;;;;;;;7.21;100.00;100186.75;5033086;28;20030;-67
2022/01/03 07:11:24;;;;;;;41.85;27.40;;;;;;;7.13;100.00;100173.34;5048051;28;20041;-69
2022/01/03 07:13:53;;;;;;;63.22;38.53;;;;;;;6.81;100.00;100135.78;5030796;28;20034;-67
2022/01/03 07:19:06;;;;;;;77.82;45.30;;;;;;;7.22;100.00;100181.66;5032643;28;20095;-66
2022/01/03 07:21:33;;;;;;;103.07;59.88;;;;;;;7.06;100.00;100186.88;5032445;28;20032;-66
2022/01/03 07:23:59;;;;;;;98.97;57.25;;;;;;;7.21;100.00;100179.97;5032480;28;20037;-67
2022/01/03 07:26:26;;;;;;;85.70;46.75;;;;;;;7.10;100.00;100181.78;5030826;28;20392;-65
2022/01/03 07:28:52;;;;;;;86.70;44.15;;;;;;;7.10;100.00;100181.78;5032519;28;20091;-66
2022/01/03 07:31:17;;;;;;;91.82;47.92;;;;;;;7.10;100.00;100179.28;5031446;28;20144;-67
2022/01/03 07:33:43;;;;;;;86.40;46.00;;;;;;;6.81;100.00;100128.22;5032197;28;20060;-68
2022/01/03 07:36:10;;;;;;;98.15;53.83;;;;;;;6.81;100.00;100136.59;5032264;28;20033;-68
2022/01/03 07:38:36;;;;;;;84.30;42.40;;;;;;;6.97;100.00;100110.31;5031962;28;20029;-66
2022/01/03 07:41:03;;;;;;;68.18;37.55;;;;;;;7.14;100.00;100102.56;5032294;28;20037;-68
2022/01/03 07:43:29;;;;;;;67.75;39.85;;;;;;;8.06;100.00;100108.00;5032069;28;20029;-69
2022/01/03 07:45:54;;;;;;;88.75;51.22;;;;;;;7.83;100.00;100151.38;5030556;28;20095;-66
2022/01/03 07:48:20;;;;;;;88.38;44.10;;;;;;;6.83;100.00;100122.25;5032251;28;20464;-66
2022/01/03 07:50:45;;;;;;;81.13;43.95;;;;;;;6.96;100.00;100111.19;5031949;28;20072;-67
2022/01/03 07:53:11;;;;;;;84.43;43.85;;;;;;;6.79;100.00;100112.22;5031681;28;20060;-64
2022/01/03 07:55:36;;;;;;;92.78;44.88;;;;;;;7.09;100.00;100159.88;5031898;28;20041;-64
2022/01/03 07:58:03;;;;;;;98.68;48.20;;;;;;;7.38;100.00;100167.16;5031896;28;20127;-64
2022/01/03 08:00:28;;;;;;;108.55;48.17;;;;;;;7.19;100.00;100170.75;5030263;28;20026;-64
2022/01/03 08:02:54;;;;;;;101.22;46.45;;;;;;;6.80;100.00;100131.56;5031780;28;20131;-67
2022/01/03 08:05:19;;;;;;;115.93;51.38;;;;;;;6.76;100.00;100087.84;5031776;28;20067;-66
2022/01/03 08:07:45;;;;;;;127.13;60.28;;;;;;;7.11;100.00;100149.78;5031667;28;20068;-68
2022/01/03 08:10:12;;;;;;;133.57;62.67;;;;;;;6.89;100.00;100104.50;5031206;28;20037;-66
2022/01/03 08:12:39;;;;;;;97.22;48.05;;;;;;;7.13;100.00;100150.59;5031691;28;20037;-66
2022/01/03 08:15:06;;;;;;;92.90;45.78;;;;;;;7.11;100.00;100144.72;5031524;28;20026;-67
2022/01/03 08:33:33;;;;;;;92.28;41.88;;;;;;;7.05;100.00;100122.06;5088570;27;20400;-69
2022/01/03 08:35:59;;;;;;;95.20;45.88;;;;;;;7.11;100.00;100144.72;5088268;28;20115;-69
2022/01/03 08:38:25;;;;;;;79.50;39.15;;;;;;;6.95;100.00;100131.44;5088538;28;20119;-70
2022/01/03 08:40:51;;;;;;;81.45;41.92;;;;;;;7.06;100.00;100126.22;5086358;28;20055;-69
2022/01/03 08:43:16;;;;;;;92.43;46.40;;;;;;;7.04;100.00;100123.72;5088149;28;20141;-67
2022/01/03 08:45:41;;;;;;;76.57;42.13;;;;;;;8.00;100.00;100116.53;5087959;28;20555;-66
2022/01/03 08:48:07;;;;;;;101.03;55.60;;;;;;;7.07;100.00;100077.38;5087673;28;20032;-68
2022/01/03 08:50:32;;;;;;;89.45;47.20;;;;;;;7.21;100.00;100095.75;5088112;28;20105;-68
2022/01/03 08:52:58;;;;;;;89.13;48.75;;;;;;;7.16;100.00;100108.41;5087711;28;20056;-68
2022/01/03 08:55:24;;;;;;;80.72;41.47;;;;;;;6.72;100.00;100034.81;5087810;28;20107;-68
2022/01/03 08:57:51;;;;;;;81.65;45.63;;;;;;;6.67;100.00;100027.31;5087587;28;20033;-70
2022/01/03 09:00:18;;;;;;;84.85;45.60;;;;;;;7.08;100.00;100090.00;5087404;28;20549;-68
2022/01/03 09:02:43;;;;;;;92.55;49.80;;;;;;;6.88;100.00;100036.31;5087576;28;20032;-68
2022/01/03 09:05:09;;;;;;;97.57;54.33;;;;;;;6.98;100.00;100045.47;5087705;28;20028;-68
2022/01/03 09:07:34;;;;;;;82.78;45.50;;;;;;;6.97;100.00;100044.63;5087551;28;20039;-68
2022/01/03 09:09:59;;;;;;;81.25;45.42;;;;;;;6.91;100.00;100029.53;5087228;28;20477;-67
2022/01/03 09:12:25;;;;;;;79.32;43.60;;;;;;;6.81;100.00;100025.44;5087105;28;20502;-68
2022/01/03 09:14:50;;;;;;;56.72;32.88;;;;;;;6.96;100.00;100062.34;5086132;28;20040;-67
2022/01/03 09:17:16;;;;;;;58.40;36.38;;;;;;;6.83;100.00;100026.25;5087354;28;20032;-68
2022/01/03 09:19:41;;;;;;;109.47;42.50;;;;;;;7.10;100.00;100063.00;5086116;28;20149;-68
2022/01/03 09:22:13;;;;;;;69.00;38.67;;;;;;;6.94;100.00;100024.47;5087115;28;20410;-67
2022/01/03 09:29:57;;;;;;;53.85;34.10;;;;;;;6.82;100.00;100014.50;5087115;28;20105;-67
2022/01/03 09:32:23;;;;;;;56.50;35.25;;;;;;;6.99;100.00;100063.13;5085206;28;20425;-67
2022/01/03 09:34:48;;;;;;;54.40;34.30;;;;;;;6.82;100.00;100019.56;5085615;28;20119;-68
2022/01/03 09:37:19;;;;;;;53.80;34.10;;;;;;;7.01;100.00;100028.56;5085321;28;20482;-68
2022/01/03 09:39:46;;;;;;;71.97;47.10;;;;;;;7.10;100.00;100024.25;5086574;28;20478;-67
2022/01/03 09:42:14;;;;;;;68.70;44.17;;;;;;;7.53;100.00;100069.16;5087085;28;20036;-67
2022/01/03 09:44:42;;;;;;;50.60;32.50;;;;;;;7.24;100.00;100032.47;5073234;28;20024;-68
2022/01/03 09:47:10;;;;;;;56.63;33.85;;;;;;;7.17;100.00;100020.78;5073554;28;20028;-68
2022/01/03 09:49:38;;;;;;;59.88;35.67;;;;;;;7.03;100.00;99978.84;5071861;28;20044;-67
2022/01/03 09:52:06;;;;;;;58.88;39.15;;;;;;;7.13;100.00;99961.84;5072861;28;20024;-68
2022/01/03 09:54:32;;;;;;;61.78;41.30;;;;;;;8.06;100.00;100064.97;5073212;28;20111;-69
2022/01/03 09:57:01;;;;;;;59.53;40.78;;;;;;;7.74;100.00;100063.75;5073223;28;20028;-68
2022/01/03 09:59:28;;;;;;;48.83;31.90;;;;;;;7.76;100.00;100058.69;5073355;28;20049;-69
2022/01/03 10:01:55;;;;;;;49.75;32.25;;;;;;;7.65;100.00;100030.19;5072132;28;20050;-68
2022/01/03 10:04:21;;;;;;;53.03;34.88;;;;;;;7.51;100.00;99978.97;5072687;28;20032;-67
2022/01/03 10:06:47;;;;;;;63.50;41.00;;;;;;;7.72;100.00;100011.53;5072473;28;20406;-67
2022/01/03 10:09:13;;;;;;;62.85;42.00;;;;;;;8.01;100.00;100047.31;5072824;28;20092;-67
2022/01/03 10:11:39;;;;;;;58.00;38.60;;;;;;;7.95;100.00;100055.00;5072277;28;20033;-67
2022/01/03 10:14:04;;;;;;;59.83;41.67;;;;;;;7.62;100.00;99983.03;5072936;28;20035;-68
2022/01/03 10:16:30;;;;;;;54.60;39.00;;;;;;;8.08;100.00;100021.03;5073389;28;20398;-68
2022/01/03 10:18:55;;;;;;;78.68;51.30;;;;;;;8.34;100.00;100015.56;5073120;28;20490;-67
2022/01/03 10:21:43;;;;;;;54.15;38.85;;;;;;;7.82;100.00;99975.09;5072256;28;20496;-67
2022/01/03 10:24:10;;;;;;;58.15;39.05;;;;;;;7.87;100.00;99953.91;5072178;28;20377;-67
2022/01/03 10:26:37;;;;;;;56.53;40.05;;;;;;;7.75;100.00;99961.72;5072422;28;20460;-67
2022/01/03 10:29:17;;;;;;;53.22;39.58;;;;;;;7.88;100.00;99963.16;5072452;28;20024;-67
2022/01/03 10:31:44;;;;;;;54.08;39.92;;;;;;;8.40;100.00;100011.19;5071408;28;20056;-66
2022/01/03 10:34:13;;;;;;;54.85;38.65;;;;;;;8.29;100.00;99989.47;5070808;28;20029;-65
2022/01/03 10:36:40;;;;;;;51.05;33.20;;;;;;;9.52;100.00;99988.53;5070507;28;20032;-68
2022/01/03 10:39:21;;;;;;;52.92;38.20;;;;;;;8.93;100.00;100007.63;5072187;28;20550;-68
2022/01/03 10:41:52;;;;;;;49.70;35.08;;;;;;;8.86;100.00;99992.53;5071475;28;20067;-67
2022/01/03 10:44:41;;;;;;;51.78;38.17;;;;;;;8.97;100.00;99977.97;5070588;28;20060;-67
2022/01/03 10:47:08;;;;;;;47.78;34.25;;;;;;;8.65;100.00;99944.00;5071814;28;20138;-68
2022/01/03 10:49:35;;;;;;;46.95;34.25;;;;;;;8.64;100.00;99949.91;5071064;28;20024;-69
2022/01/03 10:52:22;;;;;;;54.90;39.83;;;;;;;8.85;100.00;99995.97;5070952;28;20089;-69
2022/01/03 10:55:18;;;;;;;55.97;37.10;;;;;;;9.01;100.00;99982.94;5070164;28;20111;-69
2022/01/03 10:58:02;;;;;;;53.20;36.85;;;;;;;9.13;100.00;99986.91;5071714;28;20032;-68
2022/01/03 11:00:40;;;;;;;49.25;33.80;;;;;;;8.56;100.00;99923.91;5071829;28;20028;-68
2022/01/03 11:03:43;;;;;;;53.97;37.33;;;;;;;9.14;100.00;99979.25;5071520;28;20127;-67
2022/01/03 11:06:21;;;;;;;73.18;51.58;;;;;;;8.70;100.00;99913.47;5070997;28;20171;-69
2022/01/03 11:11:35;;;;;;;57.80;40.03;;;;;;;9.17;100.00;99974.09;5071772;28;20043;-68
2022/01/03 11:14:01;;;;;;;46.35;31.15;;;;;;;9.09;100.00;99962.47;5071735;28;20033;-67
2022/01/03 11:16:34;;;;;;;57.65;39.78;;;;;;;8.55;100.00;99861.44;5070098;28;20089;-68
2022/01/03 11:19:00;;;;;;;48.08;34.65;;;;;;;8.94;100.00;99896.88;5069975;28;20110;-67
2022/01/03 11:21:26;;;;;;;47.90;33.28;;;;;;;9.33;100.00;99913.72;5071250;28;20351;-66
2022/01/03 11:24:06;;;;;;;54.35;38.25;;;;;;;9.40;100.00;99945.69;5070523;28;20554;-69
2022/01/03 11:26:35;;;;;;;49.85;36.45;;;;;;;9.55;100.00;99947.84;5069910;28;20035;-66
2022/01/03 11:29:02;;;;;;;57.85;42.25;;;;;;;9.71;100.00;99931.38;5069721;28;20725;-67
2022/01/03 11:31:32;;;;;;;50.90;35.33;;;;;;;9.47;100.00;99922.66;5069552;28;20468;-68
2022/01/03 11:33:58;;;;;;;48.42;35.33;;;;;;;9.70;100.00;99924.63;5070910;28;20528;-68
2022/01/03 11:36:25;;;;;;;45.78;31.70;;;;;;;9.58;100.00;99935.94;5070428;28;20429;-69
2022/01/03 11:38:51;;;;;;;48.78;34.92;;;;;;;9.43;100.00;99905.00;5071046;28;20028;-68
2022/01/03 11:41:17;;;;;;;47.13;33.10;;;;;;;9.74;100.00;99905.91;5069688;28;20631;-68